ADDS METAR Data INFO
IDs: Format: Raw Decoded Include TAF

Data at: 1257 UTC 19 Jul 2018

KSDF 191156Z 10003KT 10SM SCT150 BKN200 BKN250 21/16 A3001 RMK AO2 SLP158 T02110156 10228 20189 51006
KSDF 191056Z 00000KT 10SM SCT250 BKN300 21/16 A3001 RMK AO2 SLP158 T02060156
KSDF 190956Z 00000KT 10SM SCT250 21/16 A3000 RMK AO2 SLP153 T02060156
KSDF 190856Z 00000KT 10SM FEW250 21/15 A2999 RMK AO2 SLP151 T02110150 55004
KSDF 190756Z 11003KT 10SM FEW250 21/15 A2999 RMK AO2 SLP149 T02110150
KSDF 190656Z 02003KT 10SM FEW250 22/16 A2999 RMK AO2 SLP152 T02170161
KSDF 190556Z 00000KT 10SM FEW070 SCT250 23/16 A3000 RMK AO2 SLP155 T02280156 10283 20200 50004
KSDF 190456Z 30003KT 10SM SCT250 22/15 A3001 RMK AO2 SLP158 T02220150 403110200
KSDF 190356Z 00000KT 10SM SCT250 23/14 A3000 RMK AO2 SLP155 T02280139
KSDF 190256Z 00000KT 10SM BKN250 24/14 A2999 RMK AO2 SLP150 T02440139 53005
KSDF 190156Z 01003KT 10SM FEW200 SCT250 26/12 A2998 RMK AO2 SLP149 T02610117
KSDF 190056Z 02004KT 10SM FEW060 FEW200 BKN250 28/11 A2998 RMK AO2 SLP147 T02780111
KSDF 182356Z 04007KT 10SM FEW060 FEW200 BKN250 29/10 A2998 RMK AO2 SLP146 T02890100 10311 20289 55007
KSDF 182256Z 05008KT 10SM FEW060 FEW200 BKN250 29/09 A2997 RMK AO2 SLP145 T02940094
KSDF 182156Z 02008KT 10SM FEW060 FEW200 BKN250 31/11 A2998 RMK AO2 SLP148 T03060111
KSDF 182056Z 29007KT 10SM FEW060 FEW200 SCT250 31/12 A3000 RMK AO2 SLP152 T03060122 58013
KSDF 181956Z 32006KT 10SM FEW060 FEW200 SCT250 31/13 A3001 RMK AO2 SLP157 T03060133
KSDF 181856Z 30006KT 10SM FEW055 FEW250 29/15 A3003 RMK AO2 SLP162 T02940150
KSDF 181756Z 29011G16KT 10SM FEW055 FEW150 SCT240 29/16 A3004 RMK AO2 SLP166 T02890156 10294 20217 58009
KSDF 181656Z 26008KT 10SM FEW050 BKN230 28/16 A3005 RMK AO2 SLP170 T02830156
KSDF 181556Z VRB05KT 10SM FEW050 BKN250 28/14 A3006 RMK AO2 SLP174 T02830139
KSDF 181456Z 36004KT 10SM FEW150 SCT250 27/13 A3006 RMK AO2 SLP175 T02720133 58000
KSDF 181356Z 34003KT 10SM FEW200 FEW250 25/16 A3007 RMK AO2 SLP176 T02500156
KSDF 181256Z 01005KT 10SM FEW060 FEW250 23/15 A3007 RMK AO2 SLP178 T02330150
KSDF 181156Z 02005KT 10SM FEW060 FEW250 22/15 A3007 RMK AO2 SLP176 T02170150 10239 20206 51010
KSDF 181056Z 36006KT 10SM FEW200 21/16 A3006 RMK AO2 SLP174 T02060156
KSDF 180956Z 36007KT 10SM FEW250 21/16 A3004 RMK AO2 SLP169 T02060161
KSDF 180856Z 01007KT 10SM FEW250 22/16 A3004 RMK AO2 SLP165 T02170161 53000
KSDF 180756Z 01009KT 10SM SCT250 23/16 A3003 RMK AO2 SLP164 T02280161
KSDF 180656Z 36008KT 10SM BKN250 23/16 A3003 RMK AO2 SLP165 T02280161
KSDF 180556Z 01005KT 10SM BKN250 24/16 A3004 RMK AO2 SLP165 T02390161 10294 20239 51005
KSDF 180456Z 36007KT 10SM BKN250 25/16 A3003 RMK AO2 SLP164 T02500156 403220239
KSDF 180356Z 01005KT 10SM BKN250 26/16 A3002 RMK AO2 SLP161 T02610156
KSDF 180256Z 02003KT 10SM SCT230 27/15 A3002 RMK AO2 SLP160 T02720150 51015
KSDF 180156Z 04007KT 10SM FEW060 BKN250 28/15 A3001 RMK AO2 SLP156 T02830150